sensor_id;sensor_type;location;lat;lon;timestamp;P1;durP1;ratioP1;P2;durP2;ratioP2
68484;SDS011;55472;50.060;21.960;2023-04-19T00:02:07;17.52;;;7.38;;
68484;SDS011;55472;50.060;21.960;2023-04-19T00:04:34;15.18;;;7.50;;
68484;SDS011;55472;50.060;21.960;2023-04-19T00:07:02;16.30;;;7.95;;
68484;SDS011;55472;50.060;21.960;2023-04-19T00:09:28;15.60;;;7.53;;
68484;SDS011;55472;50.060;21.960;2023-04-19T00:11:55;14.48;;;7.40;;
68484;SDS011;55472;50.060;21.960;2023-04-19T00:14:21;15.57;;;7.97;;
68484;SDS011;55472;50.060;21.960;2023-04-19T00:16:47;16.02;;;7.93;;
68484;SDS011;55472;50.060;21.960;2023-04-19T00:19:13;14.05;;;7.43;;
68484;SDS011;55472;50.060;21.960;2023-04-19T00:21:39;13.47;;;7.17;;
68484;SDS011;55472;50.060;21.960;2023-04-19T00:24:05;14.77;;;7.82;;
68484;SDS011;55472;50.060;21.960;2023-04-19T00:26:32;14.82;;;7.53;;
68484;SDS011;55472;50.060;21.960;2023-04-19T00:28:58;14.68;;;7.25;;
68484;SDS011;55472;50.060;21.960;2023-04-19T00:31:25;13.77;;;7.55;;
68484;SDS011;55472;50.060;21.960;2023-04-19T00:33:51;14.33;;;7.47;;
68484;SDS011;55472;50.060;21.960;2023-04-19T00:36:17;13.48;;;7.20;;
68484;SDS011;55472;50.060;21.960;2023-04-19T00:38:43;16.52;;;7.63;;
68484;SDS011;55472;50.060;21.960;2023-04-19T00:41:09;15.88;;;7.65;;
68484;SDS011;55472;50.060;21.960;2023-04-19T00:43:35;12.98;;;7.15;;
68484;SDS011;55472;50.060;21.960;2023-04-19T00:46:01;16.73;;;7.40;;
68484;SDS011;55472;50.060;21.960;2023-04-19T00:48:28;13.57;;;7.35;;
68484;SDS011;55472;50.060;21.960;2023-04-19T00:50:55;14.75;;;6.60;;
68484;SDS011;55472;50.060;21.960;2023-04-19T00:53:21;12.98;;;6.68;;
68484;SDS011;55472;50.060;21.960;2023-04-19T00:55:48;14.07;;;6.78;;
68484;SDS011;55472;50.060;21.960;2023-04-19T00:58:17;12.80;;;6.60;;
68484;SDS011;55472;50.060;21.960;2023-04-19T01:03:19;12.85;;;6.30;;
68484;SDS011;55472;50.060;21.960;2023-04-19T01:05:45;14.50;;;6.28;;
68484;SDS011;55472;50.060;21.960;2023-04-19T01:08:12;12.00;;;6.05;;
68484;SDS011;55472;50.060;21.960;2023-04-19T01:10:39;11.73;;;6.27;;
68484;SDS011;55472;50.060;21.960;2023-04-19T01:13:05;14.65;;;6.40;;
68484;SDS011;55472;50.060;21.960;2023-04-19T01:15:31;13.85;;;6.63;;
68484;SDS011;55472;50.060;21.960;2023-04-19T01:17:57;11.75;;;5.63;;
68484;SDS011;55472;50.060;21.960;2023-04-19T01:20:23;14.15;;;6.63;;
68484;SDS011;55472;50.060;21.960;2023-04-19T01:22:50;15.43;;;7.13;;
68484;SDS011;55472;50.060;21.960;2023-04-19T01:25:16;15.65;;;6.75;;
68484;SDS011;55472;50.060;21.960;2023-04-19T01:27:42;15.13;;;6.55;;
68484;SDS011;55472;50.060;21.960;2023-04-19T01:30:09;14.48;;;7.13;;
68484;SDS011;55472;50.060;21.960;2023-04-19T01:32:35;15.98;;;6.75;;
68484;SDS011;55472;50.060;21.960;2023-04-19T01:35:01;15.17;;;7.00;;
68484;SDS011;55472;50.060;21.960;2023-04-19T01:40:24;14.90;;;7.55;;
68484;SDS011;55472;50.060;21.960;2023-04-19T01:42:51;16.75;;;8.27;;
68484;SDS011;55472;50.060;21.960;2023-04-19T01:45:17;14.55;;;7.93;;
68484;SDS011;55472;50.060;21.960;2023-04-19T01:47:44;16.63;;;7.87;;
68484;SDS011;55472;50.060;21.960;2023-04-19T01:50:10;18.58;;;8.55;;
68484;SDS011;55472;50.060;21.960;2023-04-19T01:52:36;15.80;;;8.27;;
68484;SDS011;55472;50.060;21.960;2023-04-19T01:55:03;18.27;;;8.73;;
68484;SDS011;55472;50.060;21.960;2023-04-19T01:57:29;20.20;;;9.00;;
68484;SDS011;55472;50.060;21.960;2023-04-19T01:59:56;17.53;;;8.57;;
68484;SDS011;55472;50.060;21.960;2023-04-19T02:02:23;17.40;;;8.88;;
68484;SDS011;55472;50.060;21.960;2023-04-19T02:04:49;18.67;;;9.02;;
68484;SDS011;55472;50.060;21.960;2023-04-19T02:07:15;16.33;;;8.77;;
68484;SDS011;55472;50.060;21.960;2023-04-19T02:09:42;16.88;;;8.82;;
68484;SDS011;55472;50.060;21.960;2023-04-19T02:12:08;18.53;;;8.73;;
68484;SDS011;55472;50.060;21.960;2023-04-19T02:14:34;16.55;;;8.43;;
68484;SDS011;55472;50.060;21.960;2023-04-19T02:17:00;16.48;;;8.43;;
68484;SDS011;55472;50.060;21.960;2023-04-19T02:19:26;17.67;;;9.15;;
68484;SDS011;55472;50.060;21.960;2023-04-19T02:21:52;18.65;;;9.20;;
68484;SDS011;55472;50.060;21.960;2023-04-19T02:24:22;18.90;;;9.20;;
68484;SDS011;55472;50.060;21.960;2023-04-19T02:26:49;18.33;;;8.95;;
68484;SDS011;55472;50.060;21.960;2023-04-19T02:29:15;17.30;;;8.98;;
68484;SDS011;55472;50.060;21.960;2023-04-19T02:31:42;16.75;;;8.88;;
68484;SDS011;55472;50.060;21.960;2023-04-19T02:34:11;17.70;;;8.65;;
68484;SDS011;55472;50.060;21.960;2023-04-19T02:36:37;16.63;;;9.10;;
68484;SDS011;55472;50.060;21.960;2023-04-19T02:39:03;20.08;;;8.95;;
68484;SDS011;55472;50.060;21.960;2023-04-19T02:41:29;18.67;;;8.48;;
68484;SDS011;55472;50.060;21.960;2023-04-19T02:43:56;15.52;;;8.70;;
68484;SDS011;55472;50.060;21.960;2023-04-19T02:46:22;18.00;;;8.87;;
68484;SDS011;55472;50.060;21.960;2023-04-19T02:48:48;19.30;;;8.55;;
68484;SDS011;55472;50.060;21.960;2023-04-19T02:51:14;18.55;;;8.60;;
68484;SDS011;55472;50.060;21.960;2023-04-19T02:53:42;15.35;;;8.20;;
68484;SDS011;55472;50.060;21.960;2023-04-19T02:56:08;18.80;;;8.93;;
68484;SDS011;55472;50.060;21.960;2023-04-19T02:58:34;19.37;;;8.37;;
68484;SDS011;55472;50.060;21.960;2023-04-19T03:01:03;18.80;;;9.38;;
68484;SDS011;55472;50.060;21.960;2023-04-19T03:03:30;18.02;;;8.35;;
68484;SDS011;55472;50.060;21.960;2023-04-19T03:05:56;16.60;;;7.93;;
68484;SDS011;55472;50.060;21.960;2023-04-19T03:08:22;18.13;;;8.63;;
68484;SDS011;55472;50.060;21.960;2023-04-19T03:10:48;16.03;;;7.87;;
68484;SDS011;55472;50.060;21.960;2023-04-19T03:13:15;17.17;;;7.45;;
68484;SDS011;55472;50.060;21.960;2023-04-19T03:15:40;19.92;;;8.20;;
68484;SDS011;55472;50.060;21.960;2023-04-19T03:18:07;16.42;;;7.95;;
68484;SDS011;55472;50.060;21.960;2023-04-19T03:20:33;19.23;;;8.38;;
68484;SDS011;55472;50.060;21.960;2023-04-19T03:22:59;17.50;;;7.27;;
68484;SDS011;55472;50.060;21.960;2023-04-19T03:25:25;15.98;;;8.02;;
68484;SDS011;55472;50.060;21.960;2023-04-19T03:27:51;14.93;;;7.32;;
68484;SDS011;55472;50.060;21.960;2023-04-19T03:30:17;14.98;;;7.55;;
68484;SDS011;55472;50.060;21.960;2023-04-19T03:32:45;15.23;;;6.88;;
68484;SDS011;55472;50.060;21.960;2023-04-19T03:35:11;13.77;;;6.80;;
68484;SDS011;55472;50.060;21.960;2023-04-19T03:37:38;14.35;;;6.97;;
68484;SDS011;55472;50.060;21.960;2023-04-19T03:40:04;13.68;;;6.60;;
68484;SDS011;55472;50.060;21.960;2023-04-19T03:42:31;15.25;;;7.07;;
68484;SDS011;55472;50.060;21.960;2023-04-19T03:44:57;15.23;;;6.47;;
68484;SDS011;55472;50.060;21.960;2023-04-19T03:47:23;13.63;;;7.27;;
68484;SDS011;55472;50.060;21.960;2023-04-19T03:49:49;14.70;;;6.90;;
68484;SDS011;55472;50.060;21.960;2023-04-19T03:52:15;13.40;;;7.00;;
68484;SDS011;55472;50.060;21.960;2023-04-19T03:54:41;15.70;;;7.00;;
68484;SDS011;55472;50.060;21.960;2023-04-19T03:57:08;13.35;;;6.80;;
68484;SDS011;55472;50.060;21.960;2023-04-19T03:59:37;14.20;;;6.77;;
68484;SDS011;55472;50.060;21.960;2023-04-19T04:02:04;13.95;;;6.97;;
68484;SDS011;55472;50.060;21.960;2023-04-19T04:04:31;12.32;;;6.72;;
68484;SDS011;55472;50.060;21.960;2023-04-19T04:06:57;14.65;;;7.03;;
68484;SDS011;55472;50.060;21.960;2023-04-19T04:09:23;12.80;;;6.37;;
68484;SDS011;55472;50.060;21.960;2023-04-19T04:11:49;13.30;;;6.63;;
68484;SDS011;55472;50.060;21.960;2023-04-19T04:14:15;16.35;;;7.30;;
68484;SDS011;55472;50.060;21.960;2023-04-19T04:16:41;14.45;;;6.85;;
68484;SDS011;55472;50.060;21.960;2023-04-19T04:19:07;12.77;;;6.50;;
68484;SDS011;55472;50.060;21.960;2023-04-19T04:21:34;13.30;;;6.77;;
68484;SDS011;55472;50.060;21.960;2023-04-19T04:24:00;13.50;;;7.40;;
68484;SDS011;55472;50.060;21.960;2023-04-19T04:26:26;15.73;;;6.45;;
68484;SDS011;55472;50.060;21.960;2023-04-19T04:28:55;14.30;;;6.90;;
68484;SDS011;55472;50.060;21.960;2023-04-19T04:31:22;14.73;;;6.80;;
68484;SDS011;55472;50.060;21.960;2023-04-19T04:33:48;13.80;;;6.73;;
68484;SDS011;55472;50.060;21.960;2023-04-19T04:36:14;13.35;;;6.55;;
68484;SDS011;55472;50.060;21.960;2023-04-19T04:38:40;13.60;;;7.32;;
68484;SDS011;55472;50.060;21.960;2023-04-19T04:41:07;14.70;;;6.45;;
68484;SDS011;55472;50.060;21.960;2023-04-19T04:43:33;12.70;;;6.43;;
68484;SDS011;55472;50.060;21.960;2023-04-19T04:46:00;12.52;;;6.57;;
68484;SDS011;55472;50.060;21.960;2023-04-19T04:48:26;14.45;;;7.30;;
68484;SDS011;55472;50.060;21.960;2023-04-19T04:50:52;14.82;;;7.35;;
68484;SDS011;55472;50.060;21.960;2023-04-19T04:53:18;14.20;;;7.22;;
68484;SDS011;55472;50.060;21.960;2023-04-19T04:55:44;15.63;;;7.23;;
68484;SDS011;55472;50.060;21.960;2023-04-19T04:58:11;14.38;;;6.97;;
68484;SDS011;55472;50.060;21.960;2023-04-19T05:00:37;13.70;;;6.82;;
68484;SDS011;55472;50.060;21.960;2023-04-19T05:03:03;14.10;;;7.68;;
68484;SDS011;55472;50.060;21.960;2023-04-19T05:05:29;15.05;;;6.97;;
68484;SDS011;55472;50.060;21.960;2023-04-19T05:07:55;17.80;;;7.53;;
68484;SDS011;55472;50.060;21.960;2023-04-19T05:10:22;15.18;;;7.35;;
68484;SDS011;55472;50.060;21.960;2023-04-19T05:12:48;15.55;;;7.70;;
68484;SDS011;55472;50.060;21.960;2023-04-19T05:15:14;14.52;;;7.05;;
68484;SDS011;55472;50.060;21.960;2023-04-19T05:17:40;14.18;;;6.95;;
68484;SDS011;55472;50.060;21.960;2023-04-19T05:20:07;12.90;;;6.73;;
68484;SDS011;55472;50.060;21.960;2023-04-19T05:22:34;14.30;;;7.03;;
68484;SDS011;55472;50.060;21.960;2023-04-19T05:25:00;13.55;;;7.00;;
68484;SDS011;55472;50.060;21.960;2023-04-19T05:27:26;14.52;;;6.88;;
68484;SDS011;55472;50.060;21.960;2023-04-19T05:29:52;13.23;;;6.47;;
68484;SDS011;55472;50.060;21.960;2023-04-19T05:32:18;13.67;;;7.20;;
68484;SDS011;55472;50.060;21.960;2023-04-19T05:34:45;13.43;;;7.10;;
68484;SDS011;55472;50.060;21.960;2023-04-19T05:37:11;12.57;;;6.75;;
68484;SDS011;55472;50.060;21.960;2023-04-19T05:39:37;15.52;;;7.18;;
68484;SDS011;55472;50.060;21.960;2023-04-19T05:42:03;13.57;;;6.53;;
68484;SDS011;55472;50.060;21.960;2023-04-19T05:44:30;14.13;;;7.20;;
68484;SDS011;55472;50.060;21.960;2023-04-19T05:46:56;12.55;;;6.30;;
68484;SDS011;55472;50.060;21.960;2023-04-19T05:49:22;13.80;;;6.40;;
68484;SDS011;55472;50.060;21.960;2023-04-19T05:51:48;13.07;;;5.80;;
68484;SDS011;55472;50.060;21.960;2023-04-19T05:54:14;10.85;;;5.28;;
68484;SDS011;55472;50.060;21.960;2023-04-19T05:56:41;10.30;;;4.83;;
68484;SDS011;55472;50.060;21.960;2023-04-19T05:59:07;8.77;;;4.97;;
68484;SDS011;55472;50.060;21.960;2023-04-19T06:01:35;9.75;;;4.82;;
68484;SDS011;55472;50.060;21.960;2023-04-19T06:04:02;11.43;;;4.88;;
68484;SDS011;55472;50.060;21.960;2023-04-19T06:06:28;10.27;;;4.97;;
68484;SDS011;55472;50.060;21.960;2023-04-19T06:08:54;10.33;;;4.80;;
68484;SDS011;55472;50.060;21.960;2023-04-19T06:11:20;8.18;;;4.68;;
68484;SDS011;55472;50.060;21.960;2023-04-19T06:13:47;10.70;;;4.97;;
68484;SDS011;55472;50.060;21.960;2023-04-19T06:16:15;12.98;;;6.60;;
68484;SDS011;55472;50.060;21.960;2023-04-19T06:18:41;9.55;;;4.85;;
68484;SDS011;55472;50.060;21.960;2023-04-19T06:21:07;10.60;;;5.00;;
68484;SDS011;55472;50.060;21.960;2023-04-19T06:23:33;9.13;;;4.68;;
68484;SDS011;55472;50.060;21.960;2023-04-19T06:25:59;9.60;;;4.90;;
68484;SDS011;55472;50.060;21.960;2023-04-19T06:28:26;11.82;;;4.97;;
68484;SDS011;55472;50.060;21.960;2023-04-19T06:30:52;10.23;;;4.93;;
68484;SDS011;55472;50.060;21.960;2023-04-19T06:33:18;10.98;;;5.50;;
68484;SDS011;55472;50.060;21.960;2023-04-19T06:35:44;10.57;;;5.07;;
68484;SDS011;55472;50.060;21.960;2023-04-19T06:38:10;10.07;;;5.05;;
68484;SDS011;55472;50.060;21.960;2023-04-19T06:40:36;10.27;;;5.10;;
68484;SDS011;55472;50.060;21.960;2023-04-19T06:43:02;12.37;;;4.97;;
68484;SDS011;55472;50.060;21.960;2023-04-19T06:45:29;11.13;;;5.35;;
68484;SDS011;55472;50.060;21.960;2023-04-19T06:47:56;11.43;;;5.07;;
68484;SDS011;55472;50.060;21.960;2023-04-19T06:50:22;11.05;;;5.45;;
68484;SDS011;55472;50.060;21.960;2023-04-19T06:52:48;10.82;;;5.30;;
68484;SDS011;55472;50.060;21.960;2023-04-19T06:55:14;10.53;;;4.97;;
68484;SDS011;55472;50.060;21.960;2023-04-19T06:57:41;10.10;;;5.15;;
68484;SDS011;55472;50.060;21.960;2023-04-19T07:00:07;11.70;;;5.53;;
68484;SDS011;55472;50.060;21.960;2023-04-19T07:02:35;11.40;;;5.70;;
68484;SDS011;55472;50.060;21.960;2023-04-19T07:05:01;12.68;;;6.22;;
68484;SDS011;55472;50.060;21.960;2023-04-19T07:07:28;11.23;;;5.27;;
68484;SDS011;55472;50.060;21.960;2023-04-19T07:09:54;10.70;;;5.57;;
68484;SDS011;55472;50.060;21.960;2023-04-19T07:12:20;12.88;;;6.18;;
68484;SDS011;55472;50.060;21.960;2023-04-19T07:14:46;12.63;;;5.85;;
68484;SDS011;55472;50.060;21.960;2023-04-19T07:17:12;10.88;;;5.55;;
68484;SDS011;55472;50.060;21.960;2023-04-19T07:19:38;11.13;;;5.00;;
68484;SDS011;55472;50.060;21.960;2023-04-19T07:22:05;11.63;;;5.35;;
68484;SDS011;55472;50.060;21.960;2023-04-19T07:24:31;10.00;;;4.95;;
68484;SDS011;55472;50.060;21.960;2023-04-19T07:26:57;10.63;;;5.38;;
68484;SDS011;55472;50.060;21.960;2023-04-19T07:29:23;10.48;;;5.18;;
68484;SDS011;55472;50.060;21.960;2023-04-19T07:31:52;11.27;;;5.20;;
68484;SDS011;55472;50.060;21.960;2023-04-19T07:34:19;11.30;;;5.28;;
68484;SDS011;55472;50.060;21.960;2023-04-19T07:36:45;12.60;;;5.30;;
68484;SDS011;55472;50.060;21.960;2023-04-19T07:39:11;12.00;;;5.55;;
68484;SDS011;55472;50.060;21.960;2023-04-19T07:41:38;11.13;;;5.50;;
68484;SDS011;55472;50.060;21.960;2023-04-19T07:44:04;10.43;;;5.30;;
68484;SDS011;55472;50.060;21.960;2023-04-19T07:46:30;12.48;;;5.97;;
68484;SDS011;55472;50.060;21.960;2023-04-19T07:48:56;12.30;;;6.22;;
68484;SDS011;55472;50.060;21.960;2023-04-19T07:51:22;11.65;;;5.95;;
68484;SDS011;55472;50.060;21.960;2023-04-19T07:53:49;12.77;;;5.65;;
68484;SDS011;55472;50.060;21.960;2023-04-19T07:56:15;11.83;;;5.70;;
68484;SDS011;55472;50.060;21.960;2023-04-19T07:58:41;13.32;;;6.10;;
68484;SDS011;55472;50.060;21.960;2023-04-19T08:01:08;11.68;;;5.95;;
68484;SDS011;55472;50.060;21.960;2023-04-19T08:03:34;11.43;;;6.13;;
68484;SDS011;55472;50.060;21.960;2023-04-19T08:06:01;10.65;;;5.90;;
68484;SDS011;55472;50.060;21.960;2023-04-19T08:08:34;11.83;;;6.00;;
68484;SDS011;55472;50.060;21.960;2023-04-19T08:11:01;13.75;;;6.43;;
68484;SDS011;55472;50.060;21.960;2023-04-19T08:13:28;13.25;;;6.00;;
68484;SDS011;55472;50.060;21.960;2023-04-19T08:15:55;11.38;;;6.03;;
68484;SDS011;55472;50.060;21.960;2023-04-19T08:18:22;13.45;;;6.22;;
68484;SDS011;55472;50.060;21.960;2023-04-19T08:20:48;12.03;;;6.03;;
68484;SDS011;55472;50.060;21.960;2023-04-19T08:23:14;11.90;;;6.20;;
68484;SDS011;55472;50.060;21.960;2023-04-19T08:25:43;12.80;;;5.95;;
68484;SDS011;55472;50.060;21.960;2023-04-19T08:28:09;10.30;;;5.32;;
68484;SDS011;55472;50.060;21.960;2023-04-19T08:30:37;14.20;;;6.35;;
68484;SDS011;55472;50.060;21.960;2023-04-19T08:33:02;11.80;;;5.83;;
68484;SDS011;55472;50.060;21.960;2023-04-19T08:35:29;11.13;;;5.53;;
68484;SDS011;55472;50.060;21.960;2023-04-19T08:37:55;11.88;;;6.07;;
68484;SDS011;55472;50.060;21.960;2023-04-19T08:40:21;13.80;;;6.20;;
68484;SDS011;55472;50.060;21.960;2023-04-19T08:42:47;12.68;;;6.15;;
68484;SDS011;55472;50.060;21.960;2023-04-19T08:45:14;13.00;;;6.20;;
68484;SDS011;55472;50.060;21.960;2023-04-19T08:47:41;12.70;;;6.20;;
68484;SDS011;55472;50.060;21.960;2023-04-19T08:50:08;12.93;;;6.80;;
68484;SDS011;55472;50.060;21.960;2023-04-19T08:52:35;12.45;;;6.28;;
68484;SDS011;55472;50.060;21.960;2023-04-19T08:55:02;11.55;;;6.22;;
68484;SDS011;55472;50.060;21.960;2023-04-19T08:57:30;12.57;;;6.53;;
68484;SDS011;55472;50.060;21.960;2023-04-19T08:59:58;12.88;;;6.43;;
68484;SDS011;55472;50.060;21.960;2023-04-19T09:02:25;14.63;;;6.93;;
68484;SDS011;55472;50.060;21.960;2023-04-19T09:04:51;13.50;;;6.63;;
68484;SDS011;55472;50.060;21.960;2023-04-19T09:07:24;11.93;;;6.57;;
68484;SDS011;55472;50.060;21.960;2023-04-19T09:12:32;13.65;;;6.78;;
68484;SDS011;55472;50.060;21.960;2023-04-19T09:15:00;11.68;;;6.47;;
68484;SDS011;55472;50.060;21.960;2023-04-19T09:17:32;12.98;;;6.82;;
68484;SDS011;55472;50.060;21.960;2023-04-19T09:19:58;12.32;;;6.82;;
68484;SDS011;55472;50.060;21.960;2023-04-19T09:22:24;13.03;;;6.43;;
68484;SDS011;55472;50.060;21.960;2023-04-19T09:24:51;12.68;;;6.43;;
68484;SDS011;55472;50.060;21.960;2023-04-19T09:27:25;11.35;;;6.22;;
68484;SDS011;55472;50.060;21.960;2023-04-19T09:29:53;13.13;;;6.22;;
68484;SDS011;55472;50.060;21.960;2023-04-19T09:32:20;12.20;;;6.30;;
68484;SDS011;55472;50.060;21.960;2023-04-19T09:34:57;12.37;;;6.10;;
68484;SDS011;55472;50.060;21.960;2023-04-19T09:37:25;13.70;;;6.28;;
68484;SDS011;55472;50.060;21.960;2023-04-19T09:39:52;12.90;;;6.45;;
68484;SDS011;55472;50.060;21.960;2023-04-19T09:42:18;11.82;;;6.28;;
68484;SDS011;55472;50.060;21.960;2023-04-19T09:44:54;12.05;;;6.55;;
68484;SDS011;55472;50.060;21.960;2023-04-19T09:47:24;12.70;;;6.67;;
68484;SDS011;55472;50.060;21.960;2023-04-19T09:50:04;12.02;;;6.50;;
68484;SDS011;55472;50.060;21.960;2023-04-19T09:52:34;11.75;;;5.88;;
68484;SDS011;55472;50.060;21.960;2023-04-19T09:55:02;10.95;;;6.03;;
68484;SDS011;55472;50.060;21.960;2023-04-19T09:57:31;10.05;;;5.95;;
68484;SDS011;55472;50.060;21.960;2023-04-19T09:59:59;11.10;;;6.50;;
68484;SDS011;55472;50.060;21.960;2023-04-19T10:02:30;12.85;;;5.85;;
68484;SDS011;55472;50.060;21.960;2023-04-19T10:04:57;13.02;;;6.20;;
68484;SDS011;55472;50.060;21.960;2023-04-19T10:07:24;12.52;;;6.47;;
68484;SDS011;55472;50.060;21.960;2023-04-19T10:09:56;10.57;;;5.80;;
68484;SDS011;55472;50.060;21.960;2023-04-19T10:12:24;11.60;;;6.13;;
68484;SDS011;55472;50.060;21.960;2023-04-19T10:14:54;11.38;;;6.15;;
68484;SDS011;55472;50.060;21.960;2023-04-19T10:17:22;11.82;;;6.25;;
68484;SDS011;55472;50.060;21.960;2023-04-19T10:19:55;12.00;;;6.18;;
68484;SDS011;55472;50.060;21.960;2023-04-19T10:22:30;12.95;;;6.90;;
68484;SDS011;55472;50.060;21.960;2023-04-19T10:25:12;11.53;;;6.10;;
68484;SDS011;55472;50.060;21.960;2023-04-19T10:27:41;12.88;;;5.88;;
68484;SDS011;55472;50.060;21.960;2023-04-19T10:30:20;13.80;;;6.20;;
68484;SDS011;55472;50.060;21.960;2023-04-19T10:32:51;13.85;;;6.57;;
68484;SDS011;55472;50.060;21.960;2023-04-19T10:35:26;13.95;;;6.03;;
68484;SDS011;55472;50.060;21.960;2023-04-19T10:38:03;10.97;;;5.73;;
68484;SDS011;55472;50.060;21.960;2023-04-19T10:43:17;11.23;;;6.30;;
68484;SDS011;55472;50.060;21.960;2023-04-19T10:45:44;13.75;;;7.10;;
68484;SDS011;55472;50.060;21.960;2023-04-19T10:56:18;11.65;;;6.20;;
68484;SDS011;55472;50.060;21.960;2023-04-19T11:02:32;12.07;;;6.00;;
68484;SDS011;55472;50.060;21.960;2023-04-19T11:05:04;11.03;;;6.10;;
68484;SDS011;55472;50.060;21.960;2023-04-19T11:07:35;11.68;;;6.07;;
68484;SDS011;55472;50.060;21.960;2023-04-19T11:10:02;12.55;;;6.40;;
68484;SDS011;55472;50.060;21.960;2023-04-19T11:19:13;12.50;;;6.53;;
68484;SDS011;55472;50.060;21.960;2023-04-19T11:21:51;11.15;;;6.50;;
68484;SDS011;55472;50.060;21.960;2023-04-19T11:24:24;13.65;;;6.30;;
68484;SDS011;55472;50.060;21.960;2023-04-19T11:27:08;11.60;;;6.72;;
68484;SDS011;55472;50.060;21.960;2023-04-19T11:29:35;12.30;;;6.60;;
68484;SDS011;55472;50.060;21.960;2023-04-19T11:32:04;13.73;;;6.80;;
68484;SDS011;55472;50.060;21.960;2023-04-19T11:34:34;12.70;;;6.70;;
68484;SDS011;55472;50.060;21.960;2023-04-19T11:37:04;12.90;;;6.82;;
68484;SDS011;55472;50.060;21.960;2023-04-19T11:39:48;13.80;;;6.78;;
68484;SDS011;55472;50.060;21.960;2023-04-19T11:42:23;12.48;;;6.60;;
68484;SDS011;55472;50.060;21.960;2023-04-19T11:44:53;11.50;;;6.85;;
68484;SDS011;55472;50.060;21.960;2023-04-19T11:47:25;12.73;;;6.57;;
68484;SDS011;55472;50.060;21.960;2023-04-19T11:49:54;11.77;;;6.50;;
68484;SDS011;55472;50.060;21.960;2023-04-19T11:52:24;12.05;;;5.93;;
68484;SDS011;55472;50.060;21.960;2023-04-19T11:54:51;9.80;;;6.22;;
68484;SDS011;55472;50.060;21.960;2023-04-19T11:57:29;10.97;;;6.10;;
68484;SDS011;55472;50.060;21.960;2023-04-19T12:00:05;10.77;;;5.40;;
68484;SDS011;55472;50.060;21.960;2023-04-19T12:02:38;10.93;;;6.23;;
68484;SDS011;55472;50.060;21.960;2023-04-19T12:05:10;10.95;;;5.85;;
68484;SDS011;55472;50.060;21.960;2023-04-19T12:10:54;10.23;;;6.00;;
68484;SDS011;55472;50.060;21.960;2023-04-19T12:13:23;9.52;;;5.68;;
68484;SDS011;55472;50.060;21.960;2023-04-19T12:15:50;11.87;;;6.10;;
68484;SDS011;55472;50.060;21.960;2023-04-19T12:18:17;10.30;;;6.00;;
68484;SDS011;55472;50.060;21.960;2023-04-19T12:20:44;10.32;;;5.97;;
68484;SDS011;55472;50.060;21.960;2023-04-19T12:23:13;11.48;;;6.18;;
68484;SDS011;55472;50.060;21.960;2023-04-19T12:25:40;9.87;;;6.37;;
68484;SDS011;55472;50.060;21.960;2023-04-19T12:28:08;11.55;;;5.82;;
68484;SDS011;55472;50.060;21.960;2023-04-19T12:30:35;10.50;;;5.88;;
68484;SDS011;55472;50.060;21.960;2023-04-19T12:33:01;10.30;;;5.85;;
68484;SDS011;55472;50.060;21.960;2023-04-19T12:35:30;12.82;;;6.45;;
68484;SDS011;55472;50.060;21.960;2023-04-19T12:38:12;9.73;;;5.50;;
68484;SDS011;55472;50.060;21.960;2023-04-19T12:40:38;9.95;;;5.53;;
68484;SDS011;55472;50.060;21.960;2023-04-19T12:43:05;9.90;;;5.68;;
68484;SDS011;55472;50.060;21.960;2023-04-19T12:45:34;10.30;;;5.53;;
68484;SDS011;55472;50.060;21.960;2023-04-19T12:48:08;9.75;;;5.38;;
68484;SDS011;55472;50.060;21.960;2023-04-19T12:50:40;10.47;;;5.73;;
68484;SDS011;55472;50.060;21.960;2023-04-19T12:53:06;9.98;;;5.40;;
68484;SDS011;55472;50.060;21.960;2023-04-19T12:55:33;9.85;;;5.32;;
68484;SDS011;55472;50.060;21.960;2023-04-19T12:57:59;11.48;;;5.82;;
68484;SDS011;55472;50.060;21.960;2023-04-19T13:00:33;8.55;;;5.50;;
68484;SDS011;55472;50.060;21.960;2023-04-19T13:03:08;9.97;;;5.43;;
68484;SDS011;55472;50.060;21.960;2023-04-19T13:05:34;10.07;;;6.30;;
68484;SDS011;55472;50.060;21.960;2023-04-19T13:08:00;10.75;;;6.00;;
68484;SDS011;55472;50.060;21.960;2023-04-19T13:10:26;10.88;;;5.63;;
68484;SDS011;55472;50.060;21.960;2023-04-19T13:12:52;11.38;;;6.05;;
68484;SDS011;55472;50.060;21.960;2023-04-19T13:15:18;10.20;;;5.63;;
68484;SDS011;55472;50.060;21.960;2023-04-19T13:17:45;9.45;;;5.50;;
68484;SDS011;55472;50.060;21.960;2023-04-19T13:20:11;11.32;;;5.55;;
68484;SDS011;55472;50.060;21.960;2023-04-19T13:22:37;11.82;;;6.00;;
68484;SDS011;55472;50.060;21.960;2023-04-19T13:25:03;11.85;;;6.07;;
68484;SDS011;55472;50.060;21.960;2023-04-19T13:27:30;10.13;;;6.00;;
68484;SDS011;55472;50.060;21.960;2023-04-19T13:29:56;11.70;;;6.45;;
68484;SDS011;55472;50.060;21.960;2023-04-19T13:32:22;12.45;;;6.32;;
68484;SDS011;55472;50.060;21.960;2023-04-19T13:34:48;10.70;;;6.25;;
68484;SDS011;55472;50.060;21.960;2023-04-19T13:37:15;11.17;;;6.50;;
68484;SDS011;55472;50.060;21.960;2023-04-19T13:39:41;12.75;;;7.38;;
68484;SDS011;55472;50.060;21.960;2023-04-19T13:42:07;14.15;;;8.73;;
68484;SDS011;55472;50.060;21.960;2023-04-19T13:44:34;12.93;;;7.65;;
68484;SDS011;55472;50.060;21.960;2023-04-19T13:47:00;11.05;;;6.93;;
68484;SDS011;55472;50.060;21.960;2023-04-19T13:49:26;12.00;;;6.77;;
68484;SDS011;55472;50.060;21.960;2023-04-19T13:51:53;10.75;;;6.45;;
68484;SDS011;55472;50.060;21.960;2023-04-19T13:54:19;12.38;;;6.97;;
68484;SDS011;55472;50.060;21.960;2023-04-19T13:56:45;12.73;;;6.30;;
68484;SDS011;55472;50.060;21.960;2023-04-19T13:59:11;13.88;;;7.43;;
68484;SDS011;55472;50.060;21.960;2023-04-19T14:01:38;13.80;;;7.37;;
68484;SDS011;55472;50.060;21.960;2023-04-19T14:04:05;12.30;;;7.60;;
68484;SDS011;55472;50.060;21.960;2023-04-19T14:06:34;15.10;;;7.30;;
68484;SDS011;55472;50.060;21.960;2023-04-19T14:09:00;12.70;;;6.82;;
68484;SDS011;55472;50.060;21.960;2023-04-19T14:11:26;11.52;;;5.97;;
68484;SDS011;55472;50.060;21.960;2023-04-19T14:13:52;10.87;;;6.00;;
68484;SDS011;55472;50.060;21.960;2023-04-19T14:16:20;10.05;;;5.70;;
68484;SDS011;55472;50.060;21.960;2023-04-19T14:18:49;13.00;;;6.38;;
68484;SDS011;55472;50.060;21.960;2023-04-19T14:21:16;11.48;;;5.82;;
68484;SDS011;55472;50.060;21.960;2023-04-19T14:23:42;10.98;;;5.70;;
68484;SDS011;55472;50.060;21.960;2023-04-19T14:26:09;9.70;;;5.07;;
68484;SDS011;55472;50.060;21.960;2023-04-19T14:28:35;9.60;;;4.97;;
68484;SDS011;55472;50.060;21.960;2023-04-19T14:31:01;9.60;;;5.20;;
68484;SDS011;55472;50.060;21.960;2023-04-19T14:33:27;9.27;;;5.15;;
68484;SDS011;55472;50.060;21.960;2023-04-19T14:35:57;9.50;;;5.13;;
68484;SDS011;55472;50.060;21.960;2023-04-19T14:38:23;10.17;;;5.13;;
68484;SDS011;55472;50.060;21.960;2023-04-19T14:40:49;10.75;;;5.45;;
68484;SDS011;55472;50.060;21.960;2023-04-19T14:43:15;11.27;;;6.28;;
68484;SDS011;55472;50.060;21.960;2023-04-19T14:45:41;12.82;;;5.95;;
68484;SDS011;55472;50.060;21.960;2023-04-19T14:48:07;17.80;;;8.07;;
68484;SDS011;55472;50.060;21.960;2023-04-19T14:50:34;13.67;;;7.37;;
68484;SDS011;55472;50.060;21.960;2023-04-19T14:53:00;13.27;;;6.65;;
68484;SDS011;55472;50.060;21.960;2023-04-19T14:55:26;13.07;;;6.75;;
68484;SDS011;55472;50.060;21.960;2023-04-19T14:57:52;20.33;;;10.45;;